createdAt,value
2018-06-16T00:00:40.918Z,13.99
2018-06-16T00:01:40.922Z,13.93
2018-06-16T00:02:40.964Z,13.98
2018-06-16T00:03:40.905Z,13.99
2018-06-16T00:04:40.908Z,13.89
2018-06-16T00:05:40.907Z,13.91
2018-06-16T00:06:40.903Z,13.94
2018-06-16T00:07:40.909Z,13.86
2018-06-16T00:08:40.902Z,13.87
2018-06-16T00:09:40.985Z,13.93
2018-06-16T00:10:41.010Z,13.93
2018-06-16T00:11:41.184Z,13.97
2018-06-16T00:12:40.996Z,13.85
2018-06-16T00:13:41.436Z,13.8
2018-06-16T00:14:40.973Z,13.87
2018-06-16T00:15:40.959Z,13.83
2018-06-16T00:16:40.993Z,13.8
2018-06-16T00:17:40.992Z,13.76
2018-06-16T00:18:40.996Z,13.98
2018-06-16T00:19:41.003Z,13.86
2018-06-16T00:20:40.996Z,13.93
2018-06-16T00:21:41.214Z,13.84
2018-06-16T00:22:41.003Z,13.81
2018-06-16T00:23:40.961Z,13.82
2018-06-16T00:24:40.930Z,13.75
2018-06-16T00:25:40.968Z,13.76
2018-06-16T00:26:40.921Z,13.79
2018-06-16T00:27:41.000Z,13.86
2018-06-16T00:28:41.037Z,13.85
2018-06-16T00:29:40.887Z,13.85
2018-06-16T00:30:41.007Z,13.82
2018-06-16T00:31:40.959Z,13.75
2018-06-16T00:32:41.049Z,13.78
2018-06-16T00:33:40.989Z,13.69
2018-06-16T00:34:40.982Z,13.73
2018-06-16T00:35:40.909Z,13.73
2018-06-16T00:36:40.893Z,13.73
2018-06-16T00:37:41.174Z,13.72
2018-06-16T00:38:41.003Z,13.72
2018-06-16T00:39:41.017Z,13.62
2018-06-16T00:40:40.963Z,13.67
2018-06-16T00:41:41.009Z,13.6
2018-06-16T00:42:40.996Z,13.73
2018-06-16T00:43:40.974Z,13.62
2018-06-16T00:44:41.020Z,13.58
2018-06-16T00:45:40.914Z,13.62
2018-06-16T00:46:40.993Z,13.58
2018-06-16T00:47:41.054Z,13.63
2018-06-16T00:48:40.982Z,13.56
2018-06-16T00:49:40.911Z,13.57
2018-06-16T00:50:40.910Z,13.56
2018-06-16T00:51:41.374Z,13.53
2018-06-16T00:52:40.908Z,13.52
2018-06-16T00:53:40.945Z,13.54
2018-06-16T00:54:40.903Z,13.55
2018-06-16T00:55:41.081Z,13.51
2018-06-16T00:56:40.897Z,13.59
2018-06-16T00:57:41.037Z,13.55
2018-06-16T00:58:41.000Z,13.49
2018-06-16T00:59:40.935Z,13.56
2018-06-16T01:00:41.277Z,13.53
2018-06-16T01:01:41.006Z,13.65
2018-06-16T01:02:40.937Z,13.62
2018-06-16T01:03:40.891Z,13.64
2018-06-16T01:04:40.881Z,13.59
2018-06-16T01:05:40.965Z,13.59
2018-06-16T01:06:40.952Z,13.65
2018-06-16T01:07:40.895Z,13.63
2018-06-16T01:08:40.893Z,13.55
2018-06-16T01:09:40.959Z,13.51
2018-06-16T01:10:40.887Z,13.61
2018-06-16T01:11:40.886Z,13.6
2018-06-16T01:12:40.941Z,13.73
2018-06-16T01:13:40.930Z,13.55
2018-06-16T01:14:40.872Z,13.57
2018-06-16T01:15:40.899Z,13.64
2018-06-16T01:16:40.942Z,13.53
2018-06-16T01:17:40.894Z,13.56
2018-06-16T01:18:40.900Z,13.53
2018-06-16T01:19:40.968Z,13.56
2018-06-16T01:20:40.907Z,13.52
2018-06-16T01:21:41.000Z,13.5
2018-06-16T01:22:40.898Z,13.52
2018-06-16T01:23:41.030Z,13.53
2018-06-16T01:24:40.872Z,13.51
2018-06-16T01:25:40.968Z,13.5
2018-06-16T01:26:40.869Z,13.49
2018-06-16T01:27:41.072Z,13.45
2018-06-16T01:28:40.842Z,13.49
2018-06-16T01:29:40.866Z,13.38
2018-06-16T01:30:41.017Z,13.36
2018-06-16T01:31:41.025Z,13.49
2018-06-16T01:32:40.898Z,13.44
2018-06-16T01:33:40.870Z,13.53
2018-06-16T01:34:41.044Z,13.45
2018-06-16T01:35:40.872Z,13.38
2018-06-16T01:36:41.107Z,13.34
2018-06-16T01:37:40.920Z,13.35
2018-06-16T01:38:40.942Z,13.29
2018-06-16T01:39:40.987Z,13.29
2018-06-16T01:40:40.878Z,13.36
2018-06-16T01:41:40.998Z,13.37
2018-06-16T01:42:40.935Z,13.38
2018-06-16T01:43:40.858Z,13.4
2018-06-16T01:44:40.904Z,13.44
2018-06-16T01:45:41.051Z,13.58
2018-06-16T01:46:40.878Z,13.68
2018-06-16T01:47:40.914Z,13.76
2018-06-16T01:48:40.903Z,13.78
2018-06-16T01:49:40.855Z,13.82
2018-06-16T01:50:40.860Z,13.7
2018-06-16T01:51:40.877Z,13.81
2018-06-16T01:52:40.961Z,13.7
2018-06-16T01:53:40.874Z,13.79
2018-06-16T01:54:41.038Z,13.65
2018-06-16T01:55:40.916Z,13.64
2018-06-16T01:56:41.010Z,13.63
2018-06-16T01:57:40.983Z,13.56
2018-06-16T01:58:40.839Z,13.76
2018-06-16T01:59:40.924Z,13.63
2018-06-16T02:00:40.862Z,13.56
2018-06-16T02:01:40.879Z,13.49
2018-06-16T02:02:41.067Z,13.51
2018-06-16T02:03:40.946Z,13.54
2018-06-16T02:04:40.874Z,13.6
2018-06-16T02:05:40.909Z,13.58
2018-06-16T02:06:40.878Z,13.54
2018-06-16T02:07:41.093Z,13.53
2018-06-16T02:08:40.889Z,13.45
2018-06-16T02:09:40.858Z,13.51
2018-06-16T02:10:40.880Z,13.51
2018-06-16T02:11:40.884Z,13.48
2018-06-16T02:12:40.881Z,13.38
2018-06-16T02:13:40.896Z,13.47
2018-06-16T02:14:40.866Z,13.38
2018-06-16T02:15:40.950Z,13.37
2018-06-16T02:16:40.864Z,13.42
2018-06-16T02:17:40.897Z,13.44
2018-06-16T02:18:40.839Z,13.42
2018-06-16T02:19:40.858Z,13.32
2018-06-16T02:20:40.860Z,13.3
2018-06-16T02:21:40.851Z,13.22
2018-06-16T02:22:40.846Z,13.25
2018-06-16T02:23:40.854Z,13.22
2018-06-16T02:24:40.835Z,13.24
2018-06-16T02:25:40.842Z,13.2
2018-06-16T02:26:40.868Z,13.24
2018-06-16T02:27:40.893Z,13.24
2018-06-16T02:28:40.842Z,13.25
2018-06-16T02:29:40.856Z,13.22
2018-06-16T02:30:40.875Z,13.17
2018-06-16T02:31:40.852Z,13.28
2018-06-16T02:32:40.860Z,13.22
2018-06-16T02:33:40.860Z,13.29
2018-06-16T02:34:40.874Z,13.28
2018-06-16T02:35:40.871Z,13.26
2018-06-16T02:36:40.865Z,13.33
2018-06-16T02:37:40.866Z,13.19
2018-06-16T02:38:41.415Z,13.19
2018-06-16T02:39:40.992Z,13.27
2018-06-16T02:40:40.990Z,13.26
2018-06-16T02:41:40.838Z,13.23
2018-06-16T02:42:40.876Z,13.23
2018-06-16T02:43:40.894Z,13.42
2018-06-16T02:44:40.843Z,13.43
2018-06-16T02:45:40.882Z,13.38
2018-06-16T02:46:40.938Z,13.37
2018-06-16T02:47:40.871Z,13.45
2018-06-16T02:48:40.977Z,13.4
2018-06-16T02:49:40.834Z,13.41
2018-06-16T02:50:40.850Z,13.5
2018-06-16T02:51:41.448Z,13.5
2018-06-16T02:52:40.970Z,13.42
2018-06-16T02:53:41.261Z,13.51
2018-06-16T02:54:41.138Z,13.5
2018-06-16T02:55:40.833Z,13.51
2018-06-16T02:56:40.852Z,13.47
2018-06-16T02:57:40.872Z,13.52
2018-06-16T02:58:40.869Z,13.52
2018-06-16T02:59:40.859Z,13.54
2018-06-16T03:00:40.851Z,13.45
2018-06-16T03:01:40.916Z,13.6
2018-06-16T03:02:40.860Z,13.49
2018-06-16T03:03:40.863Z,13.58
2018-06-16T03:04:40.870Z,13.51
2018-06-16T03:05:40.855Z,13.45
2018-06-16T03:06:40.848Z,13.51
2018-06-16T03:07:40.864Z,13.41
2018-06-16T03:08:40.900Z,13.46
2018-06-16T03:09:40.882Z,13.43
2018-06-16T03:10:41.220Z,13.49
2018-06-16T03:11:40.893Z,13.52
2018-06-16T03:12:40.858Z,13.52
2018-06-16T03:13:40.837Z,13.49
2018-06-16T03:14:40.852Z,13.52
2018-06-16T03:15:40.854Z,13.44
2018-06-16T03:16:40.853Z,13.43
2018-06-16T03:17:40.850Z,13.46
2018-06-16T03:18:41.004Z,13.46
2018-06-16T03:19:40.864Z,13.49
2018-06-16T03:20:40.841Z,13.47
2018-06-16T03:21:40.836Z,13.4
2018-06-16T03:22:40.845Z,13.34
2018-06-16T03:23:40.823Z,13.35
2018-06-16T03:24:40.829Z,13.4
2018-06-16T03:25:40.880Z,13.37
2018-06-16T03:26:40.883Z,13.35
2018-06-16T03:27:40.852Z,13.45
2018-06-16T03:28:40.833Z,13.37
2018-06-16T03:29:40.899Z,13.42
2018-06-16T03:30:40.856Z,13.35
2018-06-16T03:31:40.851Z,13.4
2018-06-16T03:32:40.856Z,13.29
2018-06-16T03:33:40.866Z,13.28
2018-06-16T03:34:40.868Z,13.34
2018-06-16T03:35:40.826Z,13.28
2018-06-16T03:36:40.856Z,13.32
2018-06-16T03:37:40.837Z,13.22
2018-06-16T03:38:40.818Z,13.2
2018-06-16T03:39:40.813Z,13.21
2018-06-16T03:40:40.872Z,13.18
2018-06-16T03:41:40.850Z,13.08
2018-06-16T03:42:40.834Z,13.06
2018-06-16T03:43:40.860Z,13.02
2018-06-16T03:44:40.815Z,12.99
2018-06-16T03:45:40.824Z,12.99
2018-06-16T03:46:40.847Z,13
2018-06-16T03:47:40.828Z,12.99
2018-06-16T03:48:40.844Z,13.01
2018-06-16T03:49:40.824Z,12.97
2018-06-16T03:50:40.823Z,13.03
2018-06-16T03:51:40.873Z,13.05
2018-06-16T03:52:40.826Z,13.05
2018-06-16T03:53:40.836Z,13.07
2018-06-16T03:54:40.820Z,13.05
2018-06-16T03:55:40.884Z,13.01
2018-06-16T03:56:40.821Z,13
2018-06-16T03:57:40.828Z,13.03
2018-06-16T03:58:40.884Z,13.01
2018-06-16T03:59:40.836Z,13.07
2018-06-16T04:00:40.974Z,13.06
2018-06-16T04:01:40.861Z,13.07
2018-06-16T04:02:41.240Z,13.09
2018-06-16T04:03:40.970Z,13.09
2018-06-16T04:04:41.070Z,13.07
2018-06-16T04:05:40.815Z,13.1
2018-06-16T04:06:40.862Z,13.11
2018-06-16T04:07:40.815Z,13.1
2018-06-16T04:08:40.865Z,13.06
2018-06-16T04:09:41.000Z,13.08
2018-06-16T04:10:40.894Z,13.2
2018-06-16T04:11:40.834Z,13.11
2018-06-16T04:12:40.873Z,13.06
2018-06-16T04:13:40.988Z,13.14
2018-06-16T04:14:40.894Z,13.1
2018-06-16T04:15:40.957Z,13.07
2018-06-16T04:16:40.841Z,13.11
2018-06-16T04:17:41.141Z,13.08
2018-06-16T04:18:41.167Z,13.09
2018-06-16T04:19:41.091Z,13.08
2018-06-16T04:20:44.826Z,13.08
2018-06-16T04:21:40.825Z,13.13
2018-06-16T04:22:40.839Z,13.13
2018-06-16T04:23:40.820Z,13.14
2018-06-16T04:24:41.013Z,13.15
2018-06-16T04:25:40.826Z,13.22
2018-06-16T04:26:40.848Z,13.25
2018-06-16T04:27:40.835Z,13.34
2018-06-16T04:28:40.934Z,13.4
2018-06-16T04:29:40.820Z,13.33
2018-06-16T04:30:40.795Z,13.35
2018-06-16T04:31:40.832Z,13.34
2018-06-16T04:32:40.849Z,13.42
2018-06-16T04:33:40.945Z,13.39
2018-06-16T04:34:41.008Z,13.38
2018-06-16T04:35:40.847Z,13.36
2018-06-16T04:36:40.824Z,13.41
2018-06-16T04:37:40.855Z,13.44
2018-06-16T04:38:40.848Z,13.48
2018-06-16T04:39:40.963Z,13.53
2018-06-16T04:40:40.811Z,13.52
2018-06-16T04:41:40.802Z,13.45
2018-06-16T04:42:40.850Z,13.41
2018-06-16T04:43:40.842Z,13.5
2018-06-16T04:44:40.806Z,13.44
2018-06-16T04:45:41.682Z,13.49
2018-06-16T04:46:40.824Z,13.45
2018-06-16T04:47:40.810Z,13.53
2018-06-16T04:48:40.815Z,13.6
2018-06-16T04:49:40.823Z,13.63
2018-06-16T04:50:41.048Z,13.59
2018-06-16T04:51:40.813Z,13.78
2018-06-16T04:52:40.793Z,13.87
2018-06-16T04:53:40.868Z,13.78
2018-06-16T04:54:40.814Z,13.69
2018-06-16T04:55:40.819Z,13.62
2018-06-16T04:56:40.804Z,13.74
2018-06-16T04:57:40.851Z,13.65
2018-06-16T04:58:40.789Z,13.73
2018-06-16T04:59:40.797Z,13.65
2018-06-16T05:00:40.823Z,13.66
2018-06-16T05:01:40.793Z,13.6
2018-06-16T05:02:40.797Z,13.69
2018-06-16T05:03:40.794Z,13.73
2018-06-16T05:04:40.794Z,13.76
2018-06-16T05:05:40.816Z,13.67
2018-06-16T05:06:40.796Z,13.63
2018-06-16T05:07:40.819Z,13.59
2018-06-16T05:08:41.112Z,13.62
2018-06-16T05:09:40.817Z,13.74
2018-06-16T05:10:40.843Z,13.69
2018-06-16T05:11:41.008Z,13.61
2018-06-16T05:12:41.832Z,13.62
2018-06-16T05:13:41.024Z,13.69
2018-06-16T05:14:40.812Z,13.67
2018-06-16T05:15:40.827Z,13.63
2018-06-16T05:16:40.820Z,13.73
2018-06-16T05:17:40.810Z,13.63
2018-06-16T05:18:40.850Z,13.66
2018-06-16T05:19:41.231Z,13.67
2018-06-16T05:20:40.914Z,13.66
2018-06-16T05:21:40.857Z,13.7
2018-06-16T05:22:41.028Z,13.67
2018-06-16T05:23:40.789Z,13.63
2018-06-16T05:24:40.895Z,13.63
2018-06-16T05:25:41.304Z,13.82
2018-06-16T05:26:40.798Z,13.78
2018-06-16T05:27:41.001Z,13.68
2018-06-16T05:28:40.830Z,13.71
2018-06-16T05:29:40.973Z,13.78
2018-06-16T05:30:40.824Z,13.72
2018-06-16T05:31:40.812Z,13.74
2018-06-16T05:32:40.813Z,13.72
2018-06-16T05:33:40.814Z,13.77
2018-06-16T05:34:40.782Z,13.7
2018-06-16T05:35:40.831Z,13.71
2018-06-16T05:36:40.872Z,13.71
2018-06-16T05:37:40.849Z,13.64
2018-06-16T05:38:40.792Z,13.62
2018-06-16T05:39:40.803Z,13.6
2018-06-16T05:40:40.795Z,13.61
2018-06-16T05:41:40.817Z,13.59
2018-06-16T05:42:41.043Z,13.53
2018-06-16T05:43:40.816Z,13.43
2018-06-16T05:44:40.881Z,13.3
2018-06-16T05:45:40.808Z,13.32
2018-06-16T05:46:40.965Z,13.26
2018-06-16T05:47:41.035Z,13.32
2018-06-16T05:48:40.795Z,13.32
2018-06-16T05:49:41.020Z,13.26
2018-06-16T05:50:40.916Z,13.22
2018-06-16T05:51:40.899Z,13.3
2018-06-16T05:52:40.983Z,13.2
2018-06-16T05:53:40.887Z,13.13
2018-06-16T05:54:40.846Z,13.15
2018-06-16T05:55:40.814Z,13.22
2018-06-16T05:56:40.973Z,13.2
2018-06-16T05:57:41.039Z,13.03
2018-06-16T05:58:40.814Z,13.08
2018-06-16T05:59:41.034Z,13.08
2018-06-16T06:00:40.815Z,13.12
2018-06-16T06:01:40.828Z,13.13
2018-06-16T06:02:40.834Z,13.1
2018-06-16T06:03:40.798Z,13.1
2018-06-16T06:04:40.940Z,13.11
2018-06-16T06:05:40.834Z,13.16
2018-06-16T06:06:40.784Z,12.96
2018-06-16T06:07:40.796Z,13.13
2018-06-16T06:08:40.834Z,13.15
2018-06-16T06:09:40.760Z,13.2
2018-06-16T06:10:40.770Z,13.2
2018-06-16T06:11:40.780Z,13.13
2018-06-16T06:12:40.767Z,13.15
2018-06-16T06:13:40.754Z,13.17
2018-06-16T06:14:40.820Z,13.19
2018-06-16T06:15:41.678Z,13.15
2018-06-16T06:16:40.769Z,13.1
2018-06-16T06:17:40.803Z,13.26
2018-06-16T06:18:40.793Z,13.39
2018-06-16T06:19:40.938Z,13.37
2018-06-16T06:20:40.846Z,13.38
2018-06-16T06:21:40.783Z,13.33
2018-06-16T06:22:41.061Z,13.37
2018-06-16T06:23:40.810Z,13.38
2018-06-16T06:24:40.959Z,13.13
2018-06-16T06:25:40.807Z,13.25
2018-06-16T06:26:40.763Z,13.31
2018-06-16T06:27:40.813Z,13.36
2018-06-16T06:28:42.227Z,13.48
2018-06-16T06:29:40.855Z,13.44
2018-06-16T06:30:40.922Z,13.45
2018-06-16T06:31:40.834Z,13.46
2018-06-16T06:32:40.934Z,13.38
2018-06-16T06:33:40.871Z,13.38
2018-06-16T06:34:40.954Z,13.38
2018-06-16T06:35:40.792Z,13.39
2018-06-16T06:36:40.799Z,13.4
2018-06-16T06:37:41.409Z,13.33
2018-06-16T06:38:41.003Z,13.43
2018-06-16T06:39:40.774Z,13.52
2018-06-16T06:40:40.793Z,13.48
2018-06-16T06:41:40.814Z,13.34
2018-06-16T06:42:40.756Z,13.32
2018-06-16T06:43:40.803Z,13.38
2018-06-16T06:44:40.837Z,13.31
2018-06-16T06:45:40.791Z,13.38
2018-06-16T06:46:40.755Z,13.41
2018-06-16T06:47:40.806Z,13.47
2018-06-16T06:48:40.780Z,13.56
2018-06-16T06:49:40.779Z,13.51
2018-06-16T06:50:41.020Z,13.48
2018-06-16T06:51:40.980Z,13.49
2018-06-16T06:52:40.744Z,13.55
2018-06-16T06:53:40.796Z,13.64
2018-06-16T06:54:40.907Z,13.65
2018-06-16T06:55:40.785Z,13.63
2018-06-16T06:56:40.751Z,13.68
2018-06-16T06:57:40.858Z,13.66
2018-06-16T06:58:40.810Z,13.58
2018-06-16T06:59:40.749Z,13.62
2018-06-16T07:00:40.870Z,13.66
2018-06-16T07:01:40.751Z,13.6
2018-06-16T07:02:40.761Z,13.5
2018-06-16T07:03:40.811Z,13.51
2018-06-16T07:04:40.752Z,13.56
2018-06-16T07:05:40.943Z,13.6
2018-06-16T07:06:40.764Z,13.61
2018-06-16T07:07:40.826Z,13.53
2018-06-16T07:08:40.811Z,13.57
2018-06-16T07:09:40.813Z,13.6
2018-06-16T07:10:41.735Z,13.55
2018-06-16T07:11:40.797Z,13.61
2018-06-16T07:12:40.743Z,13.56
2018-06-16T07:13:40.739Z,13.63
2018-06-16T07:14:40.796Z,13.68
2018-06-16T07:15:40.790Z,13.69
2018-06-16T07:16:40.762Z,13.62
2018-06-16T07:17:40.810Z,13.57
2018-06-16T07:18:40.732Z,13.61
2018-06-16T07:19:40.803Z,13.6
2018-06-16T07:20:40.768Z,13.63
2018-06-16T07:21:40.772Z,13.68
2018-06-16T07:22:40.738Z,13.75
2018-06-16T07:23:40.809Z,13.8
2018-06-16T07:24:40.740Z,13.68
2018-06-16T07:25:40.773Z,13.71
2018-06-16T07:26:40.763Z,13.74
2018-06-16T07:27:40.746Z,13.79
2018-06-16T07:28:40.779Z,13.82
2018-06-16T07:29:40.802Z,13.84
2018-06-16T07:30:40.928Z,13.85
2018-06-16T07:31:40.769Z,13.85
2018-06-16T07:32:40.782Z,13.82
2018-06-16T07:33:45.316Z,13.77
2018-06-16T07:34:40.784Z,13.64
2018-06-16T07:35:40.721Z,13.64
2018-06-16T07:36:40.747Z,13.77
2018-06-16T07:37:40.768Z,13.8
2018-06-16T07:38:40.759Z,13.76
2018-06-16T07:39:40.736Z,13.81
2018-06-16T07:40:40.728Z,13.79
2018-06-16T07:41:40.742Z,13.74
2018-06-16T07:42:40.812Z,13.78
2018-06-16T07:43:42.150Z,13.71
2018-06-16T07:44:41.896Z,13.9
2018-06-16T07:45:40.740Z,13.99
2018-06-16T07:46:40.756Z,14.02
2018-06-16T07:47:40.760Z,13.84
2018-06-16T07:48:40.998Z,13.94
2018-06-16T07:49:40.731Z,14.11
2018-06-16T07:50:40.752Z,14.03
2018-06-16T07:51:40.733Z,14.09
2018-06-16T07:52:40.763Z,13.96
2018-06-16T07:53:40.817Z,13.84
2018-06-16T07:54:40.728Z,14.01
2018-06-16T07:55:40.775Z,14.04
2018-06-16T07:56:41.005Z,13.89
2018-06-16T07:57:40.747Z,13.99
2018-06-16T07:58:40.763Z,13.85
2018-06-16T07:59:40.773Z,13.96
2018-06-16T08:00:41.039Z,14.01
2018-06-16T08:01:40.781Z,13.99
2018-06-16T08:02:41.058Z,14.11
2018-06-16T08:03:40.759Z,14.2
2018-06-16T08:04:40.789Z,14.06
2018-06-16T08:05:40.894Z,13.99
2018-06-16T08:06:40.776Z,13.97
2018-06-16T08:07:40.788Z,14
2018-06-16T08:08:40.739Z,14.03
2018-06-16T08:09:40.727Z,14.07
2018-06-16T08:10:40.746Z,14.24
2018-06-16T08:11:40.772Z,14.22
2018-06-16T08:12:41.000Z,14.19
2018-06-16T08:13:40.733Z,13.98
2018-06-16T08:14:40.757Z,14.09
2018-06-16T08:15:40.872Z,14.1
2018-06-16T08:16:40.748Z,13.91
2018-06-16T08:17:40.730Z,13.94
2018-06-16T08:18:40.747Z,13.84
2018-06-16T08:19:40.740Z,13.91
2018-06-16T08:20:40.792Z,14
2018-06-16T08:21:40.741Z,14.05
2018-06-16T08:22:40.723Z,14.19
2018-06-16T08:23:40.781Z,14.29
2018-06-16T08:24:41.257Z,14.33
2018-06-16T08:25:40.761Z,14.19
2018-06-16T08:26:40.767Z,14.29
2018-06-16T08:27:40.791Z,14.4
2018-06-16T08:28:40.749Z,14.38
2018-06-16T08:29:40.756Z,14.47
2018-06-16T08:30:40.771Z,14.61
2018-06-16T08:31:40.789Z,14.41
2018-06-16T08:32:40.721Z,14.48
2018-06-16T08:33:40.734Z,14.47
2018-06-16T08:34:40.927Z,14.08
2018-06-16T08:35:40.753Z,14.13
2018-06-16T08:36:40.708Z,14.31
2018-06-16T08:37:40.752Z,13.77
2018-06-16T08:38:40.750Z,13.95
2018-06-16T08:39:40.757Z,14
2018-06-16T08:40:40.764Z,13.84
2018-06-16T08:41:40.740Z,13.92
2018-06-16T08:42:40.818Z,14.21
2018-06-16T08:43:40.871Z,14.5
2018-06-16T08:44:40.854Z,14.37
2018-06-16T08:45:40.891Z,14.34
2018-06-16T08:46:40.931Z,14.41
2018-06-16T08:47:40.921Z,14.31
2018-06-16T08:48:41.075Z,14.22
2018-06-16T08:49:40.925Z,14.17
2018-06-16T08:50:40.756Z,14.32
2018-06-16T08:51:40.812Z,14.67
2018-06-16T08:52:40.797Z,14.6
2018-06-16T08:53:40.766Z,14.2
2018-06-16T08:54:40.840Z,13.85
2018-06-16T08:55:41.163Z,13.98
2018-06-16T08:56:40.809Z,14
2018-06-16T08:57:40.931Z,13.99
2018-06-16T08:58:40.824Z,14.05
2018-06-16T08:59:40.802Z,14.27
2018-06-16T09:00:40.770Z,14.3
2018-06-16T09:01:40.743Z,14.28
2018-06-16T09:02:40.751Z,13.9
2018-06-16T09:03:40.743Z,13.81
2018-06-16T09:04:40.725Z,14.03
2018-06-16T09:05:40.713Z,14.01
2018-06-16T09:06:40.777Z,13.84
2018-06-16T09:07:40.741Z,13.61
2018-06-16T09:08:40.703Z,13.72
2018-06-16T09:09:40.713Z,13.89
2018-06-16T09:10:40.749Z,13.93
2018-06-16T09:11:40.980Z,13.57
2018-06-16T09:12:40.845Z,13.34
2018-06-16T09:13:40.732Z,13.6
2018-06-16T09:14:40.714Z,13.86
2018-06-16T09:15:40.721Z,13.59
2018-06-16T09:16:40.834Z,13.61
2018-06-16T09:17:40.706Z,13.49
2018-06-16T09:18:40.765Z,13.46
2018-06-16T09:19:40.777Z,13.45
2018-06-16T09:20:40.718Z,13.31
2018-06-16T09:21:40.732Z,13.49
2018-06-16T09:22:41.086Z,13.63
2018-06-16T09:23:40.819Z,13.97
2018-06-16T09:24:40.731Z,13.86
2018-06-16T09:25:40.833Z,13.24
2018-06-16T09:26:40.753Z,13.18
2018-06-16T09:27:40.721Z,13.32
2018-06-16T09:28:40.759Z,13
2018-06-16T09:29:40.789Z,12.77
2018-06-16T09:30:40.749Z,12.21
2018-06-16T09:31:41.117Z,12.61
2018-06-16T09:32:40.851Z,11.96
2018-06-16T09:33:40.704Z,12.4
2018-06-16T09:34:40.701Z,13.05
2018-06-16T09:35:40.729Z,12.57
2018-06-16T09:36:40.686Z,12.49
2018-06-16T09:37:40.711Z,12.32
2018-06-16T09:38:40.740Z,12.11
2018-06-16T09:39:40.817Z,12.67
2018-06-16T09:40:40.740Z,13.13
2018-06-16T09:41:40.694Z,12.43
2018-06-16T09:42:40.713Z,12.32
2018-06-16T09:43:40.701Z,12.69
2018-06-16T09:44:40.832Z,12.85
2018-06-16T09:45:40.836Z,12.74
2018-06-16T09:46:40.806Z,12.14
2018-06-16T09:47:40.853Z,11.86
2018-06-16T09:48:40.841Z,10.95
2018-06-16T09:49:40.837Z,11.33
2018-06-16T09:50:40.830Z,11.76
2018-06-16T09:51:40.831Z,12.38
2018-06-16T09:52:41.563Z,11.56
2018-06-16T09:53:40.682Z,12.09
2018-06-16T09:54:40.713Z,12.67
2018-06-16T09:55:40.706Z,12.78
2018-06-16T09:56:40.800Z,12.51
2018-06-16T09:57:40.682Z,12.65
2018-06-16T09:58:40.699Z,12.74
2018-06-16T09:59:40.730Z,12.23
2018-06-16T10:00:40.731Z,12.55
2018-06-16T10:01:40.742Z,12.47
2018-06-16T10:02:40.709Z,12.82
2018-06-16T10:03:40.716Z,12.14
2018-06-16T10:04:40.708Z,12.93
2018-06-16T10:05:40.744Z,12.61
2018-06-16T10:06:40.706Z,11.98
2018-06-16T10:07:40.922Z,11.91
2018-06-16T10:08:43.456Z,12.2
2018-06-16T10:09:42.104Z,12.02
2018-06-16T10:10:41.311Z,12.38
2018-06-16T10:11:43.460Z,12.53
2018-06-16T10:12:40.747Z,12.71
2018-06-16T10:13:40.691Z,12.83
2018-06-16T10:14:40.697Z,12.64
2018-06-16T10:15:41.578Z,12.55
2018-06-16T10:16:42.505Z,11.65
2018-06-16T10:17:40.946Z,11.2
2018-06-16T10:18:40.901Z,11.49
2018-06-16T10:19:40.704Z,12.11
2018-06-16T10:20:41.969Z,12.28
2018-06-16T10:21:40.701Z,12.49
2018-06-16T10:22:40.772Z,12.85
2018-06-16T10:23:40.728Z,12.9
2018-06-16T10:24:40.700Z,12.86
2018-06-16T10:25:40.827Z,12.54
2018-06-16T10:26:40.864Z,12.59
2018-06-16T10:27:40.760Z,12.73
2018-06-16T10:28:40.699Z,12.82
2018-06-16T10:29:40.720Z,12.72
2018-06-16T10:30:41.663Z,12.37
2018-06-16T10:31:41.158Z,12.15
2018-06-16T10:32:40.732Z,11.79
2018-06-16T10:33:40.705Z,12.24
2018-06-16T10:34:40.699Z,12.11
2018-06-16T10:35:40.708Z,12.39
2018-06-16T10:36:40.758Z,12.56
2018-06-16T10:37:40.711Z,13.17
2018-06-16T10:38:40.705Z,13.22
2018-06-16T10:39:40.715Z,12.86
2018-06-16T10:40:40.779Z,12.27
2018-06-16T10:41:40.748Z,12.5
2018-06-16T10:42:40.727Z,12.26
2018-06-16T10:43:40.818Z,12.29
2018-06-16T10:44:40.768Z,12.58
2018-06-16T10:45:40.855Z,12.98
2018-06-16T10:46:40.788Z,12.9
2018-06-16T10:47:40.722Z,12.77
2018-06-16T10:48:40.831Z,12.56
2018-06-16T10:49:40.756Z,12.68
2018-06-16T10:50:40.763Z,12.79
2018-06-16T10:51:40.749Z,12.93
2018-06-16T10:52:40.716Z,11.97
2018-06-16T10:53:40.725Z,12.28
2018-06-16T10:54:40.728Z,12.09
2018-06-16T10:55:40.735Z,12.05
2018-06-16T10:56:40.759Z,12.16
2018-06-16T10:57:40.736Z,12.97
2018-06-16T10:58:40.721Z,13.14
2018-06-16T10:59:40.763Z,12.82
2018-06-16T11:00:40.739Z,12.72
2018-06-16T11:01:40.843Z,12.42
2018-06-16T11:02:40.737Z,12.55
2018-06-16T11:03:40.751Z,12.79
2018-06-16T11:04:40.763Z,12.51
2018-06-16T11:05:40.779Z,12.74
2018-06-16T11:06:40.793Z,12.47
2018-06-16T11:07:40.749Z,12.48
2018-06-16T11:08:40.828Z,12.83
2018-06-16T11:09:40.735Z,12.55
2018-06-16T11:10:40.802Z,12.17
2018-06-16T11:11:40.990Z,12.19
2018-06-16T11:12:40.793Z,12.53
2018-06-16T11:13:40.765Z,12.72
2018-06-16T11:14:40.747Z,12.45
2018-06-16T11:15:40.935Z,11.96
2018-06-16T11:16:40.755Z,12.22
2018-06-16T11:17:40.776Z,11.93
2018-06-16T11:18:40.774Z,11.67
2018-06-16T11:19:40.796Z,11.78
2018-06-16T11:20:40.760Z,12.1
2018-06-16T11:21:40.902Z,12.62
2018-06-16T11:22:40.769Z,12.2
2018-06-16T11:23:40.833Z,11.93
2018-06-16T11:24:40.768Z,12.48
2018-06-16T11:25:40.751Z,12.6
2018-06-16T11:26:41.140Z,12.47
2018-06-16T11:27:40.974Z,12.63
2018-06-16T11:28:40.941Z,12.74
2018-06-16T11:29:40.805Z,12.37
2018-06-16T11:30:40.963Z,12.53
2018-06-16T11:31:40.850Z,12.72
2018-06-16T11:32:40.803Z,12.91
2018-06-16T11:33:40.956Z,12.79
2018-06-16T11:34:40.964Z,12.28
2018-06-16T11:35:40.970Z,12.03
2018-06-16T11:36:40.966Z,12.58
2018-06-16T11:37:40.816Z,12.4
2018-06-16T11:38:40.988Z,12.36
2018-06-16T11:39:41.942Z,12.18
2018-06-16T11:40:40.816Z,12.3
2018-06-16T11:41:40.905Z,12.75
2018-06-16T11:42:40.810Z,12.98
2018-06-16T11:43:41.022Z,12.47
2018-06-16T11:44:41.025Z,12.41
2018-06-16T11:45:40.838Z,12.87
2018-06-16T11:46:40.937Z,12.52
2018-06-16T11:47:40.811Z,12.57
2018-06-16T11:48:41.210Z,12.81
2018-06-16T11:49:41.056Z,12.64
2018-06-16T11:50:40.810Z,12.47
2018-06-16T11:51:40.972Z,12.36
2018-06-16T11:52:40.812Z,11.96
2018-06-16T11:53:41.075Z,11.88
2018-06-16T11:54:40.987Z,12.07
2018-06-16T11:55:40.995Z,12.54
2018-06-16T11:56:41.107Z,12.79
2018-06-16T11:57:41.232Z,12.33
2018-06-16T11:58:41.020Z,11.95
2018-06-16T11:59:40.914Z,11.87
2018-06-16T12:00:41.040Z,12.18
2018-06-16T12:01:40.843Z,12.69
2018-06-16T12:02:40.822Z,12.47
2018-06-16T12:03:40.949Z,11.84
2018-06-16T12:04:40.952Z,11.52
2018-06-16T12:05:40.809Z,11.54
2018-06-16T12:06:40.818Z,11.93
2018-06-16T12:07:40.845Z,12.23
2018-06-16T12:08:40.996Z,12.38
2018-06-16T12:09:40.996Z,12.12
2018-06-16T12:10:40.810Z,12.51
2018-06-16T12:11:40.846Z,12.06
2018-06-16T12:12:40.848Z,12.62
2018-06-16T12:13:40.973Z,12.51
2018-06-16T12:14:40.842Z,12.42
2018-06-16T12:15:40.832Z,12.55
2018-06-16T12:16:40.866Z,12.76
2018-06-16T12:17:40.870Z,12.74
2018-06-16T12:18:40.996Z,12.58
2018-06-16T12:19:40.965Z,12.07
2018-06-16T12:20:40.814Z,12.55
2018-06-16T12:21:40.842Z,11.83
2018-06-16T12:22:40.823Z,11.7
2018-06-16T12:23:40.985Z,11.76
2018-06-16T12:24:41.004Z,11.93
2018-06-16T12:25:41.006Z,12.7
2018-06-16T12:26:40.899Z,12.22
2018-06-16T12:27:41.030Z,12.38
2018-06-16T12:28:41.028Z,12.35
2018-06-16T12:29:43.416Z,12.45
2018-06-16T12:30:40.923Z,12.69
2018-06-16T12:31:40.974Z,12.39
2018-06-16T12:32:41.062Z,12.77
2018-06-16T12:33:40.951Z,12.41
2018-06-16T12:34:40.884Z,12.25
2018-06-16T12:35:41.048Z,12.06
2018-06-16T12:36:40.899Z,11.43
2018-06-16T12:37:40.881Z,11.83
2018-06-16T12:38:41.093Z,11.84
2018-06-16T12:39:40.868Z,11.72
2018-06-16T12:40:40.847Z,12.08
2018-06-16T12:41:40.846Z,11.82
2018-06-16T12:42:40.905Z,11.64
2018-06-16T12:43:42.048Z,11.77
2018-06-16T12:44:42.434Z,11.74
2018-06-16T12:45:40.877Z,11.85
2018-06-16T12:46:40.949Z,11.62
2018-06-16T12:47:40.872Z,12.01
2018-06-16T12:48:40.946Z,11.99
2018-06-16T12:49:41.040Z,11.6
2018-06-16T12:50:40.902Z,11.88
2018-06-16T12:51:40.886Z,12.07
2018-06-16T12:52:41.042Z,12.33
2018-06-16T12:53:41.087Z,12.18
2018-06-16T12:54:41.037Z,12.63
2018-06-16T12:55:40.976Z,12.91